Capitol Logistics 362


KPDX
Portland International Airport
Portland, Oregon, US
KSEA
Seattle-Tacoma International Airport
Seattle, Washington, US

Activity Log

Date Flight Route Aircraft Duration
08/26/2020 CPX362 COUGA KRIEG HAWKZ7 B763 1h 10m
06/19/2019 CPX362 COUGA KRIEG HAWKZ7 B763 0h 43m
03/21/2019 CPX362 COUGA KRIEG HAWKZ7 B763 0h 39m
03/06/2019 CPX362 COUGA KRIEG HAWKZ7 B763 0h 40m
01/31/2019 CPX362 COUGA KRIEG HAWKZ7 B763 0h 47m
01/31/2019 CPX362 COUGA KRIEG HAWKZ7 B763 0h 43m
01/28/2019 CPX362 COUGA KRIEG HAWKZ7 B763 0h 41m

Route Details

Aircraft Information
Primary: Boeing 767-300BDSF
Backup: Not Available
Route Data
Distance: 112nm
Sched. Duration: 1h 00m
Avg. Duration: 0h 51m (-48m)
Times Flown: 7
Recm'd Route: COUGA KRIEG HAWKZ7
Planned Altitude: 20,000ft
Origin Wx: KPDX 281253Z 30005KT 10SM CLR 13/09 A3029 RMK AO2 SLP256 T01280094
Dest. Wx: KSEA 281253Z 35007KT 10SM SCT003 12/11 A3037 RMK AO2 SLP290 SCT V BKN T01170106
Notes:

Financial History
Total Freight: 678,167lbs
Average Load: 96,881lbs/flt
Fuel Used: 57,171lbs
Avg. Fuel Used: 8,167lbs/flt
Fuel Expense: $49,739
Avg. Fuel Expense: $7,106
Avg. Fuel Cost: $0.87/lbs
Total Gross Income: $853,850
Pilot Pay: $1,453
Total Expenses: $92,580
Total Revenue: $710,351
Average Revenue: $121,978.52